Current Weather

Chicago Executive

Wheeling, Illinois (KPWK)

Report from: Thursday, August 18, 2022 10:52 PM CDT
Current time: Thursday, August 18, 2022 11:34 PM CDT

Nearby weather
Weather history
Weather forecast

Temperature21.7°C (71.1°F)
Dew point15.6°C (60.1°F)
Winds Calm
Visibility10 mi. (16.1 km)
Clouds Sky clear
Altimeter29.95 in.Hg (1014 mB)
Relative humidity68 %
Density altitude993 ft. (303 m)
Sea-level pressure101.4 kPa (1014 mB, 29.94 in.Hg)
Remarks Fully automated report
Automated weather observing station with precipitation discriminator
Flight conditions Visual Meteorological Conditions
Raw dataKPWK 190352Z AUTO 00000KT 10SM CLR 22/16 A2995 RMK AO2 SLP138 T02170156
An unhandled exception has occurred. See browser dev tools for details. Reload 🗙